Ji_gui — V3WJ4 — position and weather

sailwx.info

Track history (hours):
 
Tides and Currents Weather Stations Pressure Air Temp Water Temp Dewpoint Dewpoint Depression Visibility Wind Speed Wind Dir Waves Ship Positions

Ji_gui

Last reported at 2017-Sep-26 12:25 UTC. Time now 2017-Oct-19 16:33 UTC.
Position N 34°56' E 139°28'.
Warning: this ship's position is 23 days out of date.

Length 100 m; draft 3.9 m.

Type: Cargo ship. MMSI: 312889000.

Date/timePositionNaut miles runAvg speedWind from/ knotsBaromVisibWave heightAir tempDewpointWater temp
2017-Sep-26 12:25N 34°56' E 139°28'410.0
2017-Sep-26 12:00N 34°59' E 139°32'4 9.1
2017-Sep-26 11:31N 35°02' E 139°36'5 9.4
2017-Sep-26 11:01N 35°05' E 139°41'5 9.5
2017-Sep-26 10:30N 35°08' E 139°45'510.8
2017-Sep-26 10:00N 35°13' E 139°46'510.1
2017-Sep-26 09:30N 35°18' E 139°44'510.2
2017-Sep-26 09:01N 35°23' E 139°42'4 8.0
2017-Sep-26 08:31N 35°27' E 139°41'2 4.6
2017-Sep-26 08:01N 35°28' E 139°39'0 0.1
2017-Sep-26 07:28N 35°28' E 139°39'0 0.0
2017-Sep-26 06:55N 35°28' E 139°39'0 0.0
2017-Sep-26 06:28N 35°28' E 139°39'0 0.0
2017-Sep-26 05:58N 35°28' E 139°39'0 0.0
2017-Sep-26 05:28N 35°28' E 139°39'0 0.0
2017-Sep-26 04:58N 35°28' E 139°39'0 0.0
2017-Sep-26 04:28N 35°28' E 139°39'0 0.0
2017-Sep-26 03:58N 35°28' E 139°39'0 0.0
2017-Sep-26 03:28N 35°28' E 139°39'0 0.0
2017-Sep-26 02:58N 35°28' E 139°39'0 0.0
2017-Sep-26 02:28N 35°28' E 139°39'0 0.0
2017-Sep-26 01:55N 35°28' E 139°39'0 0.0
2017-Sep-26 01:28N 35°28' E 139°39'0 0.0
2017-Sep-26 00:58N 35°28' E 139°39'0 0.0
2017-Sep-26 00:25N 35°28' E 139°39'0 0.0
2017-Sep-25 23:58N 35°28' E 139°39'0 0.0
2017-Sep-25 23:28N 35°28' E 139°39'0 0.0
2017-Sep-25 22:58N 35°28' E 139°39'0 0.0
2017-Sep-25 22:28N 35°28' E 139°39'0 0.0
2017-Sep-25 21:58N 35°28' E 139°39'0 0.0
2017-Sep-25 21:28N 35°28' E 139°39'0 0.0
2017-Sep-25 20:58N 35°28' E 139°39'0 0.0
2017-Sep-25 20:28N 35°28' E 139°39'0 0.0
2017-Sep-25 19:58N 35°28' E 139°39'0 0.0
2017-Sep-25 19:28N 35°28' E 139°39'0 0.0
2017-Sep-25 18:58N 35°28' E 139°39'0 0.0
2017-Sep-25 18:28N 35°28' E 139°39'0 0.0
2017-Sep-25 17:55N 35°28' E 139°39'0 0.0
2017-Sep-25 17:28N 35°28' E 139°39'0 0.0
2017-Sep-25 16:58N 35°28' E 139°39'0 0.0
2017-Sep-25 16:28N 35°28' E 139°39'0 0.0
2017-Sep-25 15:58N 35°28' E 139°39'0 0.0
2017-Sep-25 15:25N 35°28' E 139°39'0 0.0
2017-Sep-25 14:58N 35°28' E 139°39'0 0.0
2017-Sep-25 14:28N 35°28' E 139°39'0 0.0
2017-Sep-25 13:58N 35°28' E 139°39'0 0.0
2017-Sep-25 13:28N 35°28' E 139°39'0 0.0
2017-Sep-25 12:58N 35°28' E 139°39'0 0.0
2017-Sep-25 12:28N 35°28' E 139°39'0 0.0
2017-Sep-25 11:58N 35°28' E 139°39'0 0.0
2017-Sep-25 11:28N 35°28' E 139°39'0 0.0
2017-Sep-25 10:58N 35°28' E 139°39'0 0.0
2017-Sep-25 10:28N 35°28' E 139°39'0 0.0
2017-Sep-25 09:58N 35°28' E 139°39'0 0.0
2017-Sep-25 09:28N 35°28' E 139°39'0 0.0
2017-Sep-25 08:58N 35°28' E 139°39'0 0.0
2017-Sep-25 08:28N 35°28' E 139°39'0 0.0
2017-Sep-25 07:58N 35°28' E 139°39'0 0.0
2017-Sep-25 07:25N 35°28' E 139°39'0 0.0
2017-Sep-25 06:58N 35°28' E 139°39'0 0.0
2017-Sep-25 06:28N 35°28' E 139°39'0 0.0
2017-Sep-25 05:55N 35°28' E 139°39'0 0.0
2017-Sep-25 05:28N 35°28' E 139°39'0 0.0
2017-Sep-25 04:58N 35°28' E 139°39'0 0.0
2017-Sep-25 04:28N 35°28' E 139°39'0 0.0
2017-Sep-25 03:58N 35°28' E 139°39'0 0.0
2017-Sep-25 03:28N 35°28' E 139°39'0 0.0
2017-Sep-25 02:58N 35°28' E 139°39'0 0.0
2017-Sep-25 02:28N 35°28' E 139°39'0 0.0
2017-Sep-25 01:58N 35°28' E 139°39'0 0.0
2017-Sep-25 01:28N 35°28' E 139°39'0 0.0
2017-Sep-25 00:58N 35°28' E 139°39'0 0.0
2017-Sep-25 00:28N 35°28' E 139°39'0 0.0
2017-Sep-24 23:58N 35°28' E 139°39'0 0.0
2017-Sep-24 23:28N 35°28' E 139°39'0 0.0
2017-Sep-24 22:56N 35°28' E 139°39'0 0.1
2017-Sep-24 22:31N 35°28' E 139°39'2 3.5
2017-Sep-24 22:01N 35°27' E 139°41'1 2.6
2017-Sep-24 21:30N 35°26' E 139°42'0 0.1
2017-Sep-24 20:59N 35°26' E 139°42'0 0.1
2017-Sep-24 20:29N 35°26' E 139°42'0 0.0
2017-Sep-24 19:59N 35°26' E 139°42'0 0.0
2017-Sep-24 19:29N 35°26' E 139°42'0 0.0
2017-Sep-24 18:59N 35°26' E 139°42'0 0.0
2017-Sep-24 18:29N 35°26' E 139°42'0 0.1
2017-Sep-24 17:59N 35°26' E 139°42'0 0.0
2017-Sep-24 17:29N 35°26' E 139°42'0 0.1
2017-Sep-24 16:59N 35°26' E 139°42'0 0.1
2017-Sep-24 16:29N 35°26' E 139°42'0 0.1
2017-Sep-24 15:59N 35°26' E 139°42'0 0.0
2017-Sep-24 15:29N 35°26' E 139°42'0 0.0
2017-Sep-24 14:59N 35°26' E 139°42'0 0.0
2017-Sep-24 14:29N 35°26' E 139°42'0 0.0
2017-Sep-24 13:59N 35°26' E 139°42'0 0.0
2017-Sep-24 13:29N 35°26' E 139°42'0 0.0
2017-Sep-24 12:59N 35°26' E 139°42'0 0.0
2017-Sep-24 12:29N 35°26' E 139°42'0 0.0
2017-Sep-24 11:59N 35°26' E 139°42'0 0.0
2017-Sep-24 11:29N 35°26' E 139°42'0 0.0
2017-Sep-24 10:59N 35°26' E 139°42'0 0.0
2017-Sep-24 10:29N 35°26' E 139°42'0 0.0
2017-Sep-24 09:59N 35°26' E 139°42'0 0.0
2017-Sep-24 09:29N 35°26' E 139°42'0 0.1
2017-Sep-24 08:59N 35°26' E 139°42'0 0.1
2017-Sep-24 08:29N 35°26' E 139°42'0 0.0
2017-Sep-24 07:59N 35°26' E 139°42'0 0.1
2017-Sep-24 07:29N 35°26' E 139°42'0 0.0
2017-Sep-24 06:59N 35°26' E 139°42'0 0.0
2017-Sep-24 06:29N 35°26' E 139°42'0 0.0
2017-Sep-24 05:56N 35°26' E 139°42'0 0.1
2017-Sep-24 05:29N 35°26' E 139°42'0 0.0
2017-Sep-24 04:59N 35°26' E 139°42'0 0.1
2017-Sep-24 04:26N 35°26' E 139°42'0 0.1
2017-Sep-24 03:59N 35°26' E 139°42'0 0.0
2017-Sep-24 03:29N 35°26' E 139°42'0 0.1
2017-Sep-24 02:59N 35°26' E 139°42'0 0.0
2017-Sep-24 02:29N 35°26' E 139°42'0 0.0
2017-Sep-24 01:59N 35°26' E 139°42'0 0.0
2017-Sep-24 01:29N 35°26' E 139°42'0 0.0
2017-Sep-24 00:53N 35°26' E 139°42'0 0.0
2017-Sep-24 00:29N 35°26' E 139°42'0 0.0
2017-Sep-23 23:59N 35°26' E 139°42'0 0.0
2017-Sep-23 23:29N 35°26' E 139°42'0 0.0
2017-Sep-23 22:59N 35°26' E 139°42'0 0.0
2017-Sep-23 22:29N 35°26' E 139°42'0 0.0
2017-Sep-23 21:56N 35°26' E 139°42'0 0.0
2017-Sep-23 21:29N 35°26' E 139°42'0 0.1
2017-Sep-23 20:56N 35°26' E 139°42'0 0.0
2017-Sep-23 20:23N 35°26' E 139°42'0 0.1
2017-Sep-23 19:59N 35°26' E 139°42'  
Track history (hours):
 
Tides and Currents Weather Stations Pressure Air Temp Water Temp Dewpoint Dewpoint Depression Visibility Wind Speed Wind Dir Waves Ship Positions

Ji_gui

Last reported at 2017-Sep-26 12:25 UTC. Time now 2017-Oct-19 16:33 UTC.
Position N 34°56' E 139°28'.
Warning: this ship's position is 23 days out of date.

Length 100 m; draft 3.9 m.

Type: Cargo ship. MMSI: 312889000.

Date/timePositionNaut miles runAvg speedWind from/ knotsBaromVisibWave heightAir tempDewpointWater temp
2017-Sep-26 12:25N 34°56' E 139°28'410.0
2017-Sep-26 12:00N 34°59' E 139°32'4 9.1
2017-Sep-26 11:31N 35°02' E 139°36'5 9.4
2017-Sep-26 11:01N 35°05' E 139°41'5 9.5
2017-Sep-26 10:30N 35°08' E 139°45'510.8
2017-Sep-26 10:00N 35°13' E 139°46'510.1
2017-Sep-26 09:30N 35°18' E 139°44'510.2
2017-Sep-26 09:01N 35°23' E 139°42'4 8.0
2017-Sep-26 08:31N 35°27' E 139°41'2 4.6
2017-Sep-26 08:01N 35°28' E 139°39'0 0.1
2017-Sep-26 07:28N 35°28' E 139°39'0 0.0
2017-Sep-26 06:55N 35°28' E 139°39'0 0.0
2017-Sep-26 06:28N 35°28' E 139°39'0 0.0
2017-Sep-26 05:58N 35°28' E 139°39'0 0.0
2017-Sep-26 05:28N 35°28' E 139°39'0 0.0
2017-Sep-26 04:58N 35°28' E 139°39'0 0.0
2017-Sep-26 04:28N 35°28' E 139°39'0 0.0
2017-Sep-26 03:58N 35°28' E 139°39'0 0.0
2017-Sep-26 03:28N 35°28' E 139°39'0 0.0
2017-Sep-26 02:58N 35°28' E 139°39'0 0.0
2017-Sep-26 02:28N 35°28' E 139°39'0 0.0
2017-Sep-26 01:55N 35°28' E 139°39'0 0.0
2017-Sep-26 01:28N 35°28' E 139°39'0 0.0
2017-Sep-26 00:58N 35°28' E 139°39'0 0.0
2017-Sep-26 00:25N 35°28' E 139°39'0 0.0
2017-Sep-25 23:58N 35°28' E 139°39'0 0.0
2017-Sep-25 23:28N 35°28' E 139°39'0 0.0
2017-Sep-25 22:58N 35°28' E 139°39'0 0.0
2017-Sep-25 22:28N 35°28' E 139°39'0 0.0
2017-Sep-25 21:58N 35°28' E 139°39'0 0.0
2017-Sep-25 21:28N 35°28' E 139°39'0 0.0
2017-Sep-25 20:58N 35°28' E 139°39'0 0.0
2017-Sep-25 20:28N 35°28' E 139°39'0 0.0
2017-Sep-25 19:58N 35°28' E 139°39'0 0.0
2017-Sep-25 19:28N 35°28' E 139°39'0 0.0
2017-Sep-25 18:58N 35°28' E 139°39'0 0.0
2017-Sep-25 18:28N 35°28' E 139°39'0 0.0
2017-Sep-25 17:55N 35°28' E 139°39'0 0.0
2017-Sep-25 17:28N 35°28' E 139°39'0 0.0
2017-Sep-25 16:58N 35°28' E 139°39'0 0.0
2017-Sep-25 16:28N 35°28' E 139°39'0 0.0
2017-Sep-25 15:58N 35°28' E 139°39'0 0.0
2017-Sep-25 15:25N 35°28' E 139°39'0 0.0
2017-Sep-25 14:58N 35°28' E 139°39'0 0.0
2017-Sep-25 14:28N 35°28' E 139°39'0 0.0
2017-Sep-25 13:58N 35°28' E 139°39'0 0.0
2017-Sep-25 13:28N 35°28' E 139°39'0 0.0
2017-Sep-25 12:58N 35°28' E 139°39'0 0.0
2017-Sep-25 12:28N 35°28' E 139°39'0 0.0
2017-Sep-25 11:58N 35°28' E 139°39'0 0.0
2017-Sep-25 11:28N 35°28' E 139°39'0 0.0
2017-Sep-25 10:58N 35°28' E 139°39'0 0.0
2017-Sep-25 10:28N 35°28' E 139°39'0 0.0
2017-Sep-25 09:58N 35°28' E 139°39'0 0.0
2017-Sep-25 09:28N 35°28' E 139°39'0 0.0
2017-Sep-25 08:58N 35°28' E 139°39'0 0.0
2017-Sep-25 08:28N 35°28' E 139°39'0 0.0
2017-Sep-25 07:58N 35°28' E 139°39'0 0.0
2017-Sep-25 07:25N 35°28' E 139°39'0 0.0
2017-Sep-25 06:58N 35°28' E 139°39'0 0.0
2017-Sep-25 06:28N 35°28' E 139°39'0 0.0
2017-Sep-25 05:55N 35°28' E 139°39'0 0.0
2017-Sep-25 05:28N 35°28' E 139°39'0 0.0
2017-Sep-25 04:58N 35°28' E 139°39'0 0.0
2017-Sep-25 04:28N 35°28' E 139°39'0 0.0
2017-Sep-25 03:58N 35°28' E 139°39'0 0.0
2017-Sep-25 03:28N 35°28' E 139°39'0 0.0
2017-Sep-25 02:58N 35°28' E 139°39'0 0.0
2017-Sep-25 02:28N 35°28' E 139°39'0 0.0
2017-Sep-25 01:58N 35°28' E 139°39'0 0.0
2017-Sep-25 01:28N 35°28' E 139°39'0 0.0
2017-Sep-25 00:58N 35°28' E 139°39'0 0.0
2017-Sep-25 00:28N 35°28' E 139°39'0 0.0
2017-Sep-24 23:58N 35°28' E 139°39'0 0.0
2017-Sep-24 23:28N 35°28' E 139°39'0 0.0
2017-Sep-24 22:56N 35°28' E 139°39'0 0.1
2017-Sep-24 22:31N 35°28' E 139°39'2 3.5
2017-Sep-24 22:01N 35°27' E 139°41'1 2.6
2017-Sep-24 21:30N 35°26' E 139°42'0 0.1
2017-Sep-24 20:59N 35°26' E 139°42'0 0.1
2017-Sep-24 20:29N 35°26' E 139°42'0 0.0
2017-Sep-24 19:59N 35°26' E 139°42'0 0.0
2017-Sep-24 19:29N 35°26' E 139°42'0 0.0
2017-Sep-24 18:59N 35°26' E 139°42'0 0.0
2017-Sep-24 18:29N 35°26' E 139°42'0 0.1
2017-Sep-24 17:59N 35°26' E 139°42'0 0.0
2017-Sep-24 17:29N 35°26' E 139°42'0 0.1
2017-Sep-24 16:59N 35°26' E 139°42'0 0.1
2017-Sep-24 16:29N 35°26' E 139°42'0 0.1
2017-Sep-24 15:59N 35°26' E 139°42'0 0.0
2017-Sep-24 15:29N 35°26' E 139°42'0 0.0
2017-Sep-24 14:59N 35°26' E 139°42'0 0.0
2017-Sep-24 14:29N 35°26' E 139°42'0 0.0
2017-Sep-24 13:59N 35°26' E 139°42'0 0.0
2017-Sep-24 13:29N 35°26' E 139°42'0 0.0
2017-Sep-24 12:59N 35°26' E 139°42'0 0.0
2017-Sep-24 12:29N 35°26' E 139°42'0 0.0
2017-Sep-24 11:59N 35°26' E 139°42'0 0.0
2017-Sep-24 11:29N 35°26' E 139°42'0 0.0
2017-Sep-24 10:59N 35°26' E 139°42'0 0.0
2017-Sep-24 10:29N 35°26' E 139°42'0 0.0
2017-Sep-24 09:59N 35°26' E 139°42'0 0.0
2017-Sep-24 09:29N 35°26' E 139°42'0 0.1
2017-Sep-24 08:59N 35°26' E 139°42'0 0.1
2017-Sep-24 08:29N 35°26' E 139°42'0 0.0
2017-Sep-24 07:59N 35°26' E 139°42'0 0.1
2017-Sep-24 07:29N 35°26' E 139°42'0 0.0
2017-Sep-24 06:59N 35°26' E 139°42'0 0.0
2017-Sep-24 06:29N 35°26' E 139°42'0 0.0
2017-Sep-24 05:56N 35°26' E 139°42'0 0.1
2017-Sep-24 05:29N 35°26' E 139°42'0 0.0
2017-Sep-24 04:59N 35°26' E 139°42'0 0.1
2017-Sep-24 04:26N 35°26' E 139°42'0 0.1
2017-Sep-24 03:59N 35°26' E 139°42'0 0.0
2017-Sep-24 03:29N 35°26' E 139°42'0 0.1
2017-Sep-24 02:59N 35°26' E 139°42'0 0.0
2017-Sep-24 02:29N 35°26' E 139°42'0 0.0
2017-Sep-24 01:59N 35°26' E 139°42'0 0.0
2017-Sep-24 01:29N 35°26' E 139°42'0 0.0
2017-Sep-24 00:53N 35°26' E 139°42'0 0.0
2017-Sep-24 00:29N 35°26' E 139°42'0 0.0
2017-Sep-23 23:59N 35°26' E 139°42'0 0.0
2017-Sep-23 23:29N 35°26' E 139°42'0 0.0
2017-Sep-23 22:59N 35°26' E 139°42'0 0.0
2017-Sep-23 22:29N 35°26' E 139°42'0 0.0
2017-Sep-23 21:56N 35°26' E 139°42'0 0.0
2017-Sep-23 21:29N 35°26' E 139°42'0 0.1
2017-Sep-23 20:56N 35°26' E 139°42'0 0.0
2017-Sep-23 20:23N 35°26' E 139°42'0 0.1
2017-Sep-23 19:59N 35°26' E 139°42'  

Dump ship's entire track history